createdAt,value
2018-06-11T00:00:09.093Z,78.64
2018-06-11T00:02:40.848Z,79.46
2018-06-11T00:05:12.219Z,78.84
2018-06-11T00:07:42.888Z,79.38
2018-06-11T00:10:13.643Z,79.84
2018-06-11T00:12:44.337Z,80.07
2018-06-11T00:15:15.193Z,80.37
2018-06-11T00:17:45.922Z,80.91
2018-06-11T00:20:16.985Z,79.88
2018-06-11T00:22:47.933Z,79.58
2018-06-11T00:25:18.961Z,79.07
2018-06-11T00:27:49.816Z,80.50
2018-06-11T00:30:20.928Z,80.14
2018-06-11T00:32:52.000Z,80.44
2018-06-11T00:35:23.037Z,80.77
2018-06-11T00:37:54.088Z,81.15
2018-06-11T00:40:25.008Z,81.06
2018-06-11T00:42:55.516Z,80.65
2018-06-11T00:45:26.154Z,80.53
2018-06-11T00:47:57.669Z,80.55
2018-06-11T00:50:28.787Z,80.48
2018-06-11T00:52:59.770Z,80.04
2018-06-11T00:55:48.225Z,80.69
2018-06-11T00:58:18.965Z,81.18
2018-06-11T01:00:49.724Z,80.62
2018-06-11T01:03:20.483Z,81.02
2018-06-11T01:05:51.219Z,80.82
2018-06-11T01:08:21.922Z,81.13
2018-06-11T01:10:52.626Z,80.96
2018-06-11T01:13:23.340Z,79.36
2018-06-11T01:15:54.154Z,78.70
2018-06-11T01:18:25.080Z,79.16
2018-06-11T01:20:55.822Z,78.79
2018-06-11T01:23:26.493Z,79.58
2018-06-11T01:25:57.261Z,78.73
2018-06-11T01:28:27.993Z,79.80
2018-06-11T01:30:58.775Z,79.00
2018-06-11T01:33:29.497Z,79.34
2018-06-11T01:36:00.213Z,77.51
2018-06-11T01:38:30.975Z,76.90
2018-06-11T01:41:01.693Z,78.10
2018-06-11T01:43:33.650Z,79.12
2018-06-11T01:46:05.407Z,79.15
2018-06-11T01:48:36.104Z,79.59
2018-06-11T01:51:07.054Z,79.67
2018-06-11T01:53:37.841Z,79.51
2018-06-11T01:56:08.619Z,79.29
2018-06-11T01:58:39.376Z,79.35
2018-06-11T02:01:10.077Z,79.44
2018-06-11T02:03:40.774Z,78.77
2018-06-11T02:06:11.525Z,79.36
2018-06-11T02:08:42.234Z,79.63
2018-06-11T02:11:12.928Z,79.06
2018-06-11T02:13:43.475Z,78.73
2018-06-11T02:16:14.512Z,78.53
2018-06-11T02:18:45.437Z,78.63
2018-06-11T02:21:16.032Z,78.82
2018-06-11T02:23:46.981Z,78.18
2018-06-11T02:26:18.227Z,77.85
2018-06-11T02:28:49.210Z,78.98
2018-06-11T02:31:20.165Z,79.04
2018-06-11T02:33:50.958Z,78.47
2018-06-11T02:36:22.252Z,79.14
2018-06-11T02:38:53.230Z,78.80
2018-06-11T02:41:24.460Z,78.83
2018-06-11T02:43:55.834Z,79.30
2018-06-11T02:46:27.154Z,80.78
2018-06-11T02:48:57.944Z,80.71
2018-06-11T02:51:28.725Z,81.63
2018-06-11T02:53:59.483Z,81.10
2018-06-11T02:56:31.195Z,81.29
2018-06-11T02:59:01.937Z,81.19
2018-06-11T03:01:33.731Z,80.88
2018-06-11T03:04:04.458Z,81.21
2018-06-11T03:06:35.259Z,80.65
2018-06-11T03:09:07.613Z,80.78
2018-06-11T03:11:38.325Z,79.98
2018-06-11T03:14:08.646Z,80.22
2018-06-11T03:16:39.374Z,80.33
2018-06-11T03:19:10.064Z,81.21
2018-06-11T03:21:40.787Z,81.11
2018-06-11T03:24:11.481Z,81.28
2018-06-11T03:26:42.262Z,80.88
2018-06-11T03:29:13.055Z,80.56
2018-06-11T03:31:44.224Z,80.93
2018-06-11T03:34:15.009Z,80.64
2018-06-11T03:36:45.798Z,80.41
2018-06-11T03:39:17.285Z,79.58
2018-06-11T03:41:48.086Z,78.95
2018-06-11T03:44:18.768Z,77.95
2018-06-11T03:46:49.500Z,75.93
2018-06-11T03:49:20.237Z,76.61
2018-06-11T03:51:50.985Z,78.05
2018-06-11T03:54:21.729Z,78.00
2018-06-11T03:56:52.502Z,77.77
2018-06-11T03:59:23.261Z,77.33
2018-06-11T04:01:53.965Z,75.74
2018-06-11T04:04:24.662Z,76.66
2018-06-11T04:06:55.352Z,76.99
2018-06-11T04:09:26.337Z,77.44
2018-06-11T04:11:57.033Z,77.57
2018-06-11T04:14:27.755Z,77.36
2018-06-11T04:16:58.484Z,78.11
2018-06-11T04:19:29.250Z,78.63
2018-06-11T04:22:00.096Z,78.86
2018-06-11T04:24:30.811Z,77.75
2018-06-11T04:27:01.549Z,77.53
2018-06-11T04:29:32.301Z,77.81
2018-06-11T04:32:03.070Z,77.30
2018-06-11T04:34:34.019Z,78.20
2018-06-11T04:37:04.823Z,77.26
2018-06-11T04:39:35.877Z,75.68
2018-06-11T04:42:06.717Z,75.64
2018-06-11T04:44:37.413Z,75.36
2018-06-11T04:47:09.076Z,76.05
2018-06-11T04:49:39.807Z,75.96
2018-06-11T04:52:10.615Z,75.31
2018-06-11T04:54:41.662Z,74.91
2018-06-11T04:57:13.398Z,75.57
2018-06-11T04:59:44.123Z,75.78
2018-06-11T05:02:14.865Z,73.98
2018-06-11T05:04:45.912Z,74.40
2018-06-11T05:07:17.653Z,76.07
2018-06-11T05:09:48.377Z,76.21
2018-06-11T05:12:19.118Z,75.81
2018-06-11T05:14:49.888Z,73.90
2018-06-11T05:17:20.826Z,75.63
2018-06-11T05:19:51.681Z,75.53
2018-06-11T05:22:22.044Z,75.00
2018-06-11T05:24:52.798Z,75.43
2018-06-11T05:27:23.528Z,75.38
2018-06-11T05:29:54.314Z,75.15
2018-06-11T05:32:25.164Z,73.30
2018-06-11T05:34:56.038Z,71.75
2018-06-11T05:37:26.781Z,71.88
2018-06-11T05:39:57.663Z,71.19
2018-06-11T05:42:28.389Z,73.61
2018-06-11T05:44:59.463Z,73.87
2018-06-11T05:47:30.413Z,71.97
2018-06-11T05:52:26.458Z,73.09
2018-06-11T05:54:57.312Z,74.65
2018-06-11T05:57:28.029Z,73.70
2018-06-11T05:59:58.914Z,74.35
2018-06-11T06:02:29.648Z,75.13
2018-06-11T06:05:00.409Z,74.42
2018-06-11T06:07:31.202Z,72.17
2018-06-11T06:10:02.751Z,72.06
2018-06-11T06:12:34.257Z,72.48
2018-06-11T06:15:05.187Z,72.43
2018-06-11T06:17:35.968Z,73.15
2018-06-11T06:20:07.725Z,73.60
2018-06-11T06:22:38.694Z,73.80
2018-06-11T06:25:09.524Z,72.90
2018-06-11T06:27:40.249Z,71.50
2018-06-11T06:30:10.953Z,71.42
2018-06-11T06:32:41.758Z,71.77
2018-06-11T06:35:12.482Z,72.89
2018-06-11T06:37:42.843Z,73.40
2018-06-11T06:40:13.474Z,73.75
2018-06-11T06:42:44.216Z,73.50
2018-06-11T06:45:14.967Z,73.63
2018-06-11T06:47:46.760Z,73.45
2018-06-11T06:50:17.521Z,73.86
2018-06-11T06:52:48.262Z,74.03
2018-06-11T06:55:18.989Z,73.02
2018-06-11T06:57:49.360Z,72.67
2018-06-11T07:00:20.031Z,73.03
2018-06-11T07:02:50.771Z,74.83
2018-06-11T07:05:21.464Z,75.46
2018-06-11T07:07:52.234Z,75.06
2018-06-11T07:10:22.985Z,75.09
2018-06-11T07:12:54.345Z,75.64
2018-06-11T07:15:25.060Z,75.62
2018-06-11T07:17:55.806Z,75.81
2018-06-11T07:20:26.221Z,75.89
2018-06-11T07:22:57.667Z,76.11
2018-06-11T07:25:29.545Z,76.20
2018-06-11T07:28:01.790Z,75.99
2018-06-11T07:30:33.679Z,76.42
2018-06-11T07:33:04.634Z,76.25
2018-06-11T07:35:35.720Z,75.51
2018-06-11T07:38:06.995Z,76.26
2018-06-11T07:40:38.014Z,76.22
2018-06-11T07:43:09.136Z,76.43
2018-06-11T07:45:40.253Z,76.21
2018-06-11T07:48:11.352Z,75.83
2018-06-11T07:50:42.424Z,75.20
2018-06-11T07:53:13.658Z,76.19
2018-06-11T07:55:44.824Z,74.31
2018-06-11T07:58:16.123Z,74.70
2018-06-11T08:00:47.163Z,75.35
2018-06-11T08:03:18.242Z,75.23
2018-06-11T08:05:49.366Z,74.16
2018-06-11T08:08:20.598Z,74.74
2018-06-11T08:10:51.640Z,74.10
2018-06-11T08:13:23.292Z,75.16
2018-06-11T08:15:54.259Z,75.63
2018-06-11T08:18:25.283Z,75.70
2018-06-11T08:20:56.325Z,74.30
2018-06-11T08:23:27.218Z,75.07
2018-06-11T08:25:58.327Z,72.89
2018-06-11T08:28:29.329Z,73.82
2018-06-11T08:31:00.392Z,73.90
2018-06-11T08:33:31.432Z,72.67
2018-06-11T08:36:02.444Z,72.88
2018-06-11T08:38:34.226Z,73.32
2018-06-11T08:41:05.402Z,72.24
2018-06-11T08:43:36.373Z,71.57
2018-06-11T08:46:07.476Z,71.82
2018-06-11T08:48:38.528Z,72.20
2018-06-11T08:51:09.495Z,70.75
2018-06-11T08:53:40.581Z,70.40
2018-06-11T08:56:11.511Z,69.26
2018-06-11T08:58:42.569Z,69.44
2018-06-11T09:01:14.394Z,68.31
2018-06-11T09:03:45.415Z,68.42
2018-06-11T09:06:16.497Z,68.80
2018-06-11T09:08:47.497Z,69.18
2018-06-11T09:11:18.552Z,68.93
2018-06-11T09:13:50.893Z,67.74
2018-06-11T09:16:21.818Z,68.30
2018-06-11T09:18:52.764Z,68.79
2018-06-11T09:21:23.781Z,66.85
2018-06-11T09:23:54.847Z,66.84
2018-06-11T09:26:25.813Z,65.97
2018-06-11T09:28:57.210Z,66.88
2018-06-11T09:31:28.458Z,67.51
2018-06-11T09:33:59.509Z,67.26
2018-06-11T09:36:30.569Z,67.39
2018-06-11T09:39:01.712Z,65.77
2018-06-11T09:41:32.764Z,66.68
2018-06-11T09:44:03.940Z,65.59
2018-06-11T09:46:35.031Z,65.71
2018-06-11T09:49:06.231Z,64.90
2018-06-11T09:51:37.927Z,64.46
2018-06-11T09:54:09.153Z,64.80
2018-06-11T09:56:40.294Z,64.97
2018-06-11T09:59:12.487Z,63.51
2018-06-11T10:01:43.540Z,64.59
2018-06-11T10:04:14.673Z,62.76
2018-06-11T10:06:45.843Z,63.37
2018-06-11T10:09:16.950Z,61.76
2018-06-11T10:11:47.819Z,61.43
2018-06-11T10:14:19.005Z,62.95
2018-06-11T10:16:50.078Z,61.88
2018-06-11T10:19:21.388Z,62.14
2018-06-11T10:21:52.288Z,61.67
2018-06-11T10:24:23.221Z,60.19
2018-06-11T10:26:54.270Z,60.42
2018-06-11T10:29:25.207Z,58.29
2018-06-11T10:31:56.201Z,59.21
2018-06-11T10:34:29.398Z,58.60
2018-06-11T10:37:00.445Z,58.03
2018-06-11T10:39:31.463Z,57.82
2018-06-11T10:42:02.460Z,58.32
2018-06-11T10:44:33.622Z,60.80
2018-06-11T10:47:04.507Z,59.56
2018-06-11T10:49:35.662Z,58.70
2018-06-11T10:52:06.589Z,58.96
2018-06-11T10:54:38.789Z,58.72
2018-06-11T10:57:09.797Z,57.14
2018-06-11T10:59:41.256Z,58.22
2018-06-11T11:02:12.184Z,57.95
2018-06-11T11:04:42.821Z,56.95
2018-06-11T11:07:13.689Z,55.51
2018-06-11T11:09:44.697Z,55.79
2018-06-11T11:12:15.806Z,55.11
2018-06-11T11:14:47.976Z,55.17
2018-06-11T11:17:19.085Z,54.69
2018-06-11T11:19:53.803Z,54.63
2018-06-11T11:22:24.964Z,55.55
2018-06-11T11:24:56.431Z,54.72
2018-06-11T11:27:27.421Z,55.13
2018-06-11T11:29:58.153Z,55.06
2018-06-11T11:32:28.965Z,54.93
2018-06-11T11:35:00.059Z,54.19
2018-06-11T11:37:31.017Z,55.09
2018-06-11T11:40:02.066Z,55.68
2018-06-11T11:42:33.127Z,55.44
2018-06-11T11:45:04.476Z,55.48
2018-06-11T11:47:35.506Z,56.51
2018-06-11T11:50:06.620Z,55.74
2018-06-11T11:52:37.768Z,57.21
2018-06-11T11:55:09.950Z,57.01
2018-06-11T11:57:41.000Z,56.94
2018-06-11T12:00:12.303Z,57.08
2018-06-11T12:02:44.208Z,56.36
2018-06-11T12:05:15.379Z,56.63
2018-06-11T12:07:46.522Z,55.00
2018-06-11T12:10:17.676Z,55.65
2018-06-11T12:12:48.967Z,54.43
2018-06-11T12:15:20.124Z,54.86
2018-06-11T12:17:51.198Z,53.53
2018-06-11T12:20:22.363Z,53.52
2018-06-11T12:22:53.312Z,52.67
2018-06-11T12:25:25.090Z,53.12
2018-06-11T12:27:56.111Z,53.48
2018-06-11T12:30:27.378Z,53.14
2018-06-11T12:32:58.467Z,52.94
2018-06-11T12:35:29.647Z,51.75
2018-06-11T12:38:01.973Z,50.91
2018-06-11T12:40:33.240Z,51.45
2018-06-11T12:43:04.344Z,51.45
2018-06-11T12:45:35.366Z,51.59
2018-06-11T12:48:06.637Z,51.99
2018-06-11T12:50:37.758Z,51.70
2018-06-11T12:53:08.780Z,49.73
2018-06-11T12:55:40.405Z,49.37
2018-06-11T12:58:12.115Z,49.14
2018-06-11T13:00:42.822Z,49.89
2018-06-11T13:03:14.405Z,50.05
2018-06-11T13:05:45.571Z,49.75
2018-06-11T13:08:16.678Z,50.11
2018-06-11T13:10:47.615Z,49.70
2018-06-11T13:13:18.703Z,50.59
2018-06-11T13:15:49.866Z,52.04
2018-06-11T13:18:21.053Z,53.22
2018-06-11T13:20:52.319Z,53.43
2018-06-11T13:23:23.558Z,54.21
2018-06-11T13:25:54.509Z,55.88
2018-06-11T13:28:25.663Z,55.21
2018-06-11T13:30:57.843Z,56.75
2018-06-11T13:33:29.309Z,57.73
2018-06-11T13:36:00.435Z,58.51
2018-06-11T13:38:31.547Z,57.40
2018-06-11T13:41:02.610Z,57.87
2018-06-11T13:43:33.627Z,58.01
2018-06-11T13:46:04.209Z,58.72
2018-06-11T13:48:35.599Z,60.65
2018-06-11T13:51:06.783Z,60.77
2018-06-11T13:53:38.099Z,61.56
2018-06-11T13:56:08.733Z,62.05
2018-06-11T13:58:39.640Z,62.70
2018-06-11T14:01:10.718Z,62.95
2018-06-11T14:03:41.762Z,63.12
2018-06-11T14:06:12.830Z,63.72
2018-06-11T14:08:43.742Z,65.38
2018-06-11T14:11:14.927Z,66.54
2018-06-11T14:13:45.858Z,68.31
2018-06-11T14:16:16.927Z,68.47
2018-06-11T14:18:47.948Z,68.95
2018-06-11T14:21:18.920Z,67.44
2018-06-11T14:23:50.034Z,67.51
2018-06-11T14:26:21.225Z,67.07
2018-06-11T14:28:52.509Z,68.08
2018-06-11T14:31:23.683Z,68.79
2018-06-11T14:33:54.785Z,67.85
2018-06-11T14:36:25.915Z,68.72
2018-06-11T14:38:57.116Z,70.38
2018-06-11T14:41:28.291Z,71.08
2018-06-11T14:43:59.425Z,71.08
2018-06-11T14:46:31.728Z,71.08
2018-06-11T14:49:03.058Z,70.87
2018-06-11T14:51:36.712Z,71.07
2018-06-11T14:54:07.609Z,71.59
2018-06-11T14:56:38.945Z,72.58
2018-06-11T14:59:10.984Z,73.33
2018-06-11T15:01:43.644Z,74.17
2018-06-11T15:04:14.815Z,74.94
2018-06-11T15:06:47.005Z,75.14
2018-06-11T15:09:18.173Z,75.13
2018-06-11T15:11:49.279Z,75.43
2018-06-11T15:14:20.219Z,75.87
2018-06-11T15:16:51.284Z,76.81
2018-06-11T15:19:21.967Z,77.47
2018-06-11T15:21:53.199Z,76.74
2018-06-11T15:24:24.195Z,76.89
2018-06-11T15:26:55.169Z,76.69
2018-06-11T15:29:26.199Z,77.88
2018-06-11T15:31:57.203Z,78.05
2018-06-11T15:34:28.255Z,77.58
2018-06-11T15:36:59.456Z,77.66
2018-06-11T15:39:30.552Z,77.59
2018-06-11T15:42:01.534Z,77.58
2018-06-11T15:44:32.589Z,77.72
2018-06-11T15:47:03.495Z,77.01
2018-06-11T15:49:35.492Z,77.53
2018-06-11T15:52:06.504Z,77.49
2018-06-11T15:54:37.333Z,77.02
2018-06-11T15:57:08.136Z,77.27
2018-06-11T15:59:39.108Z,77.42
2018-06-11T16:02:10.222Z,78.36
2018-06-11T16:04:41.449Z,78.46
2018-06-11T16:07:12.727Z,78.94
2018-06-11T16:09:43.958Z,78.80
2018-06-11T16:12:14.768Z,78.52
2018-06-11T16:14:46.169Z,78.80
2018-06-11T16:17:17.402Z,78.69
2018-06-11T16:19:48.338Z,78.82
2018-06-11T16:22:19.407Z,79.67
2018-06-11T16:24:50.645Z,80.25
2018-06-11T16:27:22.244Z,79.61
2018-06-11T16:29:53.244Z,79.79
2018-06-11T16:32:24.398Z,79.86
2018-06-11T16:34:55.552Z,80.00
2018-06-11T16:37:26.739Z,80.09
2018-06-11T16:39:57.972Z,80.04
2018-06-11T16:42:29.196Z,79.51
2018-06-11T16:45:01.112Z,79.71
2018-06-11T16:47:32.285Z,79.13
2018-06-11T16:50:03.550Z,80.06
2018-06-11T16:52:34.873Z,80.01
2018-06-11T16:55:06.104Z,81.01
2018-06-11T16:57:37.417Z,79.94
2018-06-11T17:00:08.477Z,80.34
2018-06-11T17:02:39.315Z,80.63
2018-06-11T17:05:10.536Z,81.06
2018-06-11T17:07:41.226Z,80.32
2018-06-11T17:10:12.160Z,80.74
2018-06-11T17:12:43.272Z,80.86
2018-06-11T17:15:14.456Z,81.10
2018-06-11T17:17:45.783Z,82.04
2018-06-11T17:20:16.903Z,81.69
2018-06-11T17:22:48.122Z,80.33
2018-06-11T17:25:19.239Z,80.91
2018-06-11T17:27:50.401Z,80.67
2018-06-11T17:30:21.588Z,80.77
2018-06-11T17:32:52.792Z,81.18
2018-06-11T17:35:23.947Z,81.39
2018-06-11T17:37:55.072Z,81.19
2018-06-11T17:40:26.077Z,80.84
2018-06-11T17:42:57.223Z,80.53
2018-06-11T17:45:28.504Z,80.32
2018-06-11T17:47:59.723Z,79.98
2018-06-11T17:50:30.248Z,80.01
2018-06-11T17:53:01.529Z,79.55
2018-06-11T17:55:32.523Z,79.71
2018-06-11T17:58:03.830Z,79.64
2018-06-11T18:00:36.356Z,80.46
2018-06-11T18:03:08.222Z,81.59
2018-06-11T18:05:39.324Z,80.39
2018-06-11T18:08:10.159Z,81.69
2018-06-11T18:10:41.182Z,80.63
2018-06-11T18:13:12.382Z,80.93
2018-06-11T18:15:44.038Z,80.18
2018-06-11T18:18:15.206Z,80.29
2018-06-11T18:20:46.333Z,80.15
2018-06-11T18:23:17.181Z,80.19
2018-06-11T18:25:49.110Z,80.51
2018-06-11T18:28:19.960Z,81.22
2018-06-11T18:30:50.946Z,80.70
2018-06-11T18:33:21.769Z,81.54
2018-06-11T18:35:52.721Z,81.16
2018-06-11T18:38:23.554Z,81.72
2018-06-11T18:40:54.381Z,82.00
2018-06-11T18:43:25.608Z,81.31
2018-06-11T18:45:56.455Z,81.65
2018-06-11T18:48:28.536Z,81.31
2018-06-11T18:51:00.383Z,80.77
2018-06-11T18:53:33.702Z,80.94
2018-06-11T18:56:04.596Z,81.49
2018-06-11T18:58:36.121Z,81.48
2018-06-11T19:01:06.984Z,80.70
2018-06-11T19:03:39.011Z,81.41
2018-06-11T19:06:09.629Z,80.53
2018-06-11T19:08:40.470Z,81.26
2018-06-11T19:11:11.311Z,81.57
2018-06-11T19:13:42.371Z,81.23
2018-06-11T19:16:14.453Z,81.58
2018-06-11T19:18:45.402Z,81.75
2018-06-11T19:21:16.409Z,81.22
2018-06-11T19:23:47.396Z,81.24
2018-06-11T19:26:18.337Z,80.86
2018-06-11T19:28:50.401Z,80.92
2018-06-11T19:31:21.431Z,81.23
2018-06-11T19:33:52.306Z,80.80
2018-06-11T19:36:23.238Z,80.43
2018-06-11T19:38:54.189Z,81.13
2018-06-11T19:41:25.671Z,80.54
2018-06-11T19:43:56.604Z,80.41
2018-06-11T19:46:28.247Z,80.47
2018-06-11T19:48:59.430Z,80.27
2018-06-11T19:51:30.325Z,79.72
2018-06-11T19:54:01.280Z,80.08
2018-06-11T19:56:32.256Z,80.17
2018-06-11T19:59:04.180Z,79.95
2018-06-11T20:01:36.408Z,79.41
2018-06-11T20:04:07.278Z,79.88
2018-06-11T20:06:38.331Z,79.67
2018-06-11T20:09:10.402Z,79.79
2018-06-11T20:11:40.909Z,79.64
2018-06-11T20:14:11.288Z,79.41
2018-06-11T20:16:42.138Z,79.09
2018-06-11T20:19:13.281Z,79.59
2018-06-11T20:21:44.157Z,79.33
2018-06-11T20:24:15.659Z,80.05
2018-06-11T20:26:46.519Z,79.84
2018-06-11T20:29:17.378Z,79.41
2018-06-11T20:31:48.839Z,80.36
2018-06-11T20:34:19.171Z,80.20
2018-06-11T20:36:49.882Z,80.10
2018-06-11T20:39:20.939Z,80.38
2018-06-11T20:41:52.086Z,80.52
2018-06-11T20:44:22.963Z,80.55
2018-06-11T20:46:53.920Z,80.47
2018-06-11T20:49:24.833Z,80.43
2018-06-11T20:51:55.669Z,80.55
2018-06-11T20:54:27.497Z,80.68
2018-06-11T20:56:58.995Z,81.75
2018-06-11T20:59:30.884Z,80.99
2018-06-11T21:02:02.684Z,80.76
2018-06-11T21:04:33.562Z,80.97
2018-06-11T21:07:04.503Z,80.28
2018-06-11T21:09:35.385Z,80.79
2018-06-11T21:12:06.205Z,80.26
2018-06-11T21:14:37.080Z,80.11
2018-06-11T21:17:08.022Z,80.55
2018-06-11T21:19:38.843Z,79.85
2018-06-11T21:22:09.656Z,80.17
2018-06-11T21:24:40.519Z,80.85
2018-06-11T21:27:11.420Z,79.90
2018-06-11T21:29:42.243Z,80.92
2018-06-11T21:32:13.118Z,82.14
2018-06-11T21:34:43.911Z,81.57
2018-06-11T21:37:14.798Z,81.37
2018-06-11T21:39:45.733Z,80.58
2018-06-11T21:42:16.248Z,80.21
2018-06-11T21:44:46.965Z,79.95
2018-06-11T21:47:17.820Z,80.46
2018-06-11T21:49:48.713Z,79.72
2018-06-11T21:52:19.523Z,80.20
2018-06-11T21:54:50.506Z,80.09
2018-06-11T21:57:21.308Z,79.43
2018-06-11T21:59:52.152Z,79.79
2018-06-11T22:02:22.947Z,79.72
2018-06-11T22:04:53.865Z,80.01
2018-06-11T22:07:24.590Z,80.50
2018-06-11T22:09:55.366Z,80.08
2018-06-11T22:12:26.157Z,79.93
2018-06-11T22:14:57.046Z,79.38
2018-06-11T22:17:27.853Z,79.24
2018-06-11T22:19:59.049Z,79.19
2018-06-11T22:22:29.833Z,80.12
2018-06-11T22:25:00.611Z,79.52
2018-06-11T22:27:31.407Z,80.15
2018-06-11T22:30:01.746Z,79.78
2018-06-11T22:32:32.380Z,80.83
2018-06-11T22:35:03.187Z,80.52
2018-06-11T22:37:34.034Z,80.95
2018-06-11T22:40:05.123Z,80.99
2018-06-11T22:42:36.157Z,81.18
2018-06-11T22:45:06.973Z,80.84
2018-06-11T22:47:37.684Z,80.24
2018-06-11T22:50:08.451Z,80.23
2018-06-11T22:52:39.210Z,80.05
2018-06-11T22:55:09.969Z,80.52
2018-06-11T22:57:40.700Z,81.50
2018-06-11T23:00:12.065Z,81.23
2018-06-11T23:02:43.211Z,81.17
2018-06-11T23:05:14.522Z,80.63
2018-06-11T23:07:51.210Z,81.43
2018-06-11T23:10:25.080Z,81.64
2018-06-11T23:12:55.837Z,82.11
2018-06-11T23:15:27.796Z,82.15
2018-06-11T23:18:05.358Z,81.59
2018-06-11T23:20:36.132Z,81.38
2018-06-11T23:23:06.953Z,81.51
2018-06-11T23:28:15.767Z,82.40
2018-06-11T23:30:46.515Z,82.48
2018-06-11T23:33:17.374Z,82.47
2018-06-11T23:35:48.422Z,82.20
2018-06-11T23:38:19.355Z,82.15
2018-06-11T23:40:50.109Z,83.05
2018-06-11T23:43:20.857Z,82.57
2018-06-11T23:45:51.567Z,82.52
2018-06-11T23:48:22.285Z,82.32
2018-06-11T23:50:53.237Z,82.71
2018-06-11T23:53:23.947Z,83.11
2018-06-11T23:55:54.697Z,82.94
2018-06-11T23:58:26.363Z,83.38
